sensor_id;sensor_type;location;lat;lon;timestamp;P1;durP1;ratioP1;P2;durP2;ratioP2
22191;SDS011;11261;52.456;10.850;2022-12-20T00:01:24;8.77;;;2.97;;
22191;SDS011;11261;52.456;10.850;2022-12-20T00:03:54;8.82;;;3.30;;
22191;SDS011;11261;52.456;10.850;2022-12-20T00:06:24;10.68;;;4.65;;
22191;SDS011;11261;52.456;10.850;2022-12-20T00:08:53;8.82;;;4.65;;
22191;SDS011;11261;52.456;10.850;2022-12-20T00:11:22;9.35;;;4.43;;
22191;SDS011;11261;52.456;10.850;2022-12-20T00:13:52;7.97;;;4.85;;
22191;SDS011;11261;52.456;10.850;2022-12-20T00:16:21;9.48;;;4.93;;
22191;SDS011;11261;52.456;10.850;2022-12-20T00:18:51;9.32;;;5.30;;
22191;SDS011;11261;52.456;10.850;2022-12-20T00:21:21;8.05;;;5.03;;
22191;SDS011;11261;52.456;10.850;2022-12-20T00:23:49;9.68;;;4.88;;
22191;SDS011;11261;52.456;10.850;2022-12-20T00:26:19;8.82;;;3.95;;
22191;SDS011;11261;52.456;10.850;2022-12-20T00:28:50;8.77;;;4.65;;
22191;SDS011;11261;52.456;10.850;2022-12-20T00:31:21;9.48;;;3.85;;
22191;SDS011;11261;52.456;10.850;2022-12-20T00:33:50;9.55;;;5.15;;
22191;SDS011;11261;52.456;10.850;2022-12-20T00:36:21;7.85;;;4.28;;
22191;SDS011;11261;52.456;10.850;2022-12-20T00:38:51;8.85;;;4.63;;
22191;SDS011;11261;52.456;10.850;2022-12-20T00:41:21;9.20;;;4.68;;
22191;SDS011;11261;52.456;10.850;2022-12-20T00:43:50;6.13;;;4.10;;
22191;SDS011;11261;52.456;10.850;2022-12-20T00:46:20;8.45;;;4.65;;
22191;SDS011;11261;52.456;10.850;2022-12-20T00:48:50;3.08;;;1.55;;
22191;SDS011;11261;52.456;10.850;2022-12-20T00:51:20;7.97;;;4.32;;
22191;SDS011;11261;52.456;10.850;2022-12-20T00:53:50;5.20;;;2.47;;
22191;SDS011;11261;52.456;10.850;2022-12-20T00:56:18;6.75;;;4.10;;
22191;SDS011;11261;52.456;10.850;2022-12-20T00:58:47;8.55;;;3.88;;
22191;SDS011;11261;52.456;10.850;2022-12-20T01:01:18;5.78;;;3.28;;
22191;SDS011;11261;52.456;10.850;2022-12-20T01:03:48;7.85;;;4.07;;
22191;SDS011;11261;52.456;10.850;2022-12-20T01:06:18;6.38;;;4.13;;
22191;SDS011;11261;52.456;10.850;2022-12-20T01:08:47;8.02;;;4.63;;
22191;SDS011;11261;52.456;10.850;2022-12-20T01:11:15;8.63;;;4.30;;
22191;SDS011;11261;52.456;10.850;2022-12-20T01:13:46;7.15;;;4.50;;
22191;SDS011;11261;52.456;10.850;2022-12-20T01:16:19;8.77;;;4.40;;
22191;SDS011;11261;52.456;10.850;2022-12-20T01:18:49;6.50;;;4.05;;
22191;SDS011;11261;52.456;10.850;2022-12-20T01:21:18;7.32;;;3.60;;
22191;SDS011;11261;52.456;10.850;2022-12-20T01:23:47;5.65;;;3.80;;
22191;SDS011;11261;52.456;10.850;2022-12-20T01:26:17;9.05;;;4.47;;
22191;SDS011;11261;52.456;10.850;2022-12-20T01:28:48;7.05;;;4.68;;
22191;SDS011;11261;52.456;10.850;2022-12-20T01:31:20;7.30;;;3.15;;
22191;SDS011;11261;52.456;10.850;2022-12-20T01:33:49;6.63;;;3.67;;
22191;SDS011;11261;52.456;10.850;2022-12-20T01:36:19;6.68;;;3.30;;
22191;SDS011;11261;52.456;10.850;2022-12-20T01:38:54;9.13;;;4.00;;
22191;SDS011;11261;52.456;10.850;2022-12-20T01:41:23;6.55;;;4.25;;
22191;SDS011;11261;52.456;10.850;2022-12-20T01:43:53;10.05;;;4.25;;
22191;SDS011;11261;52.456;10.850;2022-12-20T01:46:25;7.40;;;3.47;;
22191;SDS011;11261;52.456;10.850;2022-12-20T01:48:57;10.20;;;4.53;;
22191;SDS011;11261;52.456;10.850;2022-12-20T01:51:29;6.20;;;2.80;;
22191;SDS011;11261;52.456;10.850;2022-12-20T01:54:02;8.07;;;4.07;;
22191;SDS011;11261;52.456;10.850;2022-12-20T01:56:34;7.40;;;5.10;;
22191;SDS011;11261;52.456;10.850;2022-12-20T01:59:04;5.10;;;2.47;;
22191;SDS011;11261;52.456;10.850;2022-12-20T02:01:35;8.02;;;3.53;;
22191;SDS011;11261;52.456;10.850;2022-12-20T02:04:04;11.38;;;3.97;;
22191;SDS011;11261;52.456;10.850;2022-12-20T02:06:32;8.88;;;4.22;;
22191;SDS011;11261;52.456;10.850;2022-12-20T02:09:00;6.85;;;3.90;;
22191;SDS011;11261;52.456;10.850;2022-12-20T02:11:48;6.53;;;4.20;;
22191;SDS011;11261;52.456;10.850;2022-12-20T02:14:35;0.80;;;0.80;;
22191;SDS011;11261;52.456;10.850;2022-12-20T02:17:20;7.22;;;3.85;;
22191;SDS011;11261;52.456;10.850;2022-12-20T02:20:14;9.07;;;4.25;;
22191;SDS011;11261;52.456;10.850;2022-12-20T02:26:29;11.40;;;4.18;;
22191;SDS011;11261;52.456;10.850;2022-12-20T02:29:17;7.40;;;3.92;;
22191;SDS011;11261;52.456;10.850;2022-12-20T02:31:54;6.43;;;3.30;;
22191;SDS011;11261;52.456;10.850;2022-12-20T02:34:26;7.95;;;4.18;;
22191;SDS011;11261;52.456;10.850;2022-12-20T02:36:58;6.75;;;2.53;;
22191;SDS011;11261;52.456;10.850;2022-12-20T02:39:27;7.30;;;3.70;;
22191;SDS011;11261;52.456;10.850;2022-12-20T02:41:57;5.40;;;3.08;;
22191;SDS011;11261;52.456;10.850;2022-12-20T02:44:30;5.50;;;3.42;;
22191;SDS011;11261;52.456;10.850;2022-12-20T02:47:21;2.53;;;0.60;;
22191;SDS011;11261;52.456;10.850;2022-12-20T02:49:53;6.90;;;3.47;;
22191;SDS011;11261;52.456;10.850;2022-12-20T02:52:23;6.93;;;3.78;;
22191;SDS011;11261;52.456;10.850;2022-12-20T02:54:56;7.28;;;3.10;;
22191;SDS011;11261;52.456;10.850;2022-12-20T02:57:26;5.07;;;3.53;;
22191;SDS011;11261;52.456;10.850;2022-12-20T03:00:01;7.38;;;3.95;;
22191;SDS011;11261;52.456;10.850;2022-12-20T03:02:34;5.63;;;4.00;;
22191;SDS011;11261;52.456;10.850;2022-12-20T03:05:16;8.73;;;4.47;;
22191;SDS011;11261;52.456;10.850;2022-12-20T03:07:47;7.88;;;3.80;;
22191;SDS011;11261;52.456;10.850;2022-12-20T03:10:16;8.15;;;4.00;;
22191;SDS011;11261;52.456;10.850;2022-12-20T03:12:44;6.57;;;3.45;;
22191;SDS011;11261;52.456;10.850;2022-12-20T03:15:12;7.25;;;4.10;;
22191;SDS011;11261;52.456;10.850;2022-12-20T03:17:42;6.38;;;3.70;;
22191;SDS011;11261;52.456;10.850;2022-12-20T03:20:10;7.32;;;4.10;;
22191;SDS011;11261;52.456;10.850;2022-12-20T03:22:38;8.85;;;3.80;;
22191;SDS011;11261;52.456;10.850;2022-12-20T03:25:07;5.88;;;3.60;;
22191;SDS011;11261;52.456;10.850;2022-12-20T03:27:35;7.60;;;3.85;;
22191;SDS011;11261;52.456;10.850;2022-12-20T03:30:04;6.55;;;3.97;;
22191;SDS011;11261;52.456;10.850;2022-12-20T03:32:33;6.72;;;4.00;;
22191;SDS011;11261;52.456;10.850;2022-12-20T03:35:03;6.47;;;3.70;;
22191;SDS011;11261;52.456;10.850;2022-12-20T03:37:32;7.00;;;3.75;;
22191;SDS011;11261;52.456;10.850;2022-12-20T03:40:00;8.40;;;3.53;;
22191;SDS011;11261;52.456;10.850;2022-12-20T03:42:28;3.20;;;2.33;;
22191;SDS011;11261;52.456;10.850;2022-12-20T03:44:56;8.20;;;4.22;;
22191;SDS011;11261;52.456;10.850;2022-12-20T03:47:24;6.57;;;3.58;;
22191;SDS011;11261;52.456;10.850;2022-12-20T03:49:53;2.08;;;1.60;;
22191;SDS011;11261;52.456;10.850;2022-12-20T03:52:22;5.90;;;3.45;;
22191;SDS011;11261;52.456;10.850;2022-12-20T03:54:51;5.88;;;3.63;;
22191;SDS011;11261;52.456;10.850;2022-12-20T03:57:19;6.05;;;3.42;;
22191;SDS011;11261;52.456;10.850;2022-12-20T03:59:47;4.72;;;2.53;;
22191;SDS011;11261;52.456;10.850;2022-12-20T04:02:15;8.07;;;4.10;;
22191;SDS011;11261;52.456;10.850;2022-12-20T04:04:44;6.47;;;2.58;;
22191;SDS011;11261;52.456;10.850;2022-12-20T04:07:12;7.45;;;3.47;;
22191;SDS011;11261;52.456;10.850;2022-12-20T04:09:42;5.72;;;3.13;;
22191;SDS011;11261;52.456;10.850;2022-12-20T04:12:10;6.75;;;3.63;;
22191;SDS011;11261;52.456;10.850;2022-12-20T04:14:38;5.13;;;2.70;;
22191;SDS011;11261;52.456;10.850;2022-12-20T04:17:06;6.85;;;2.95;;
22191;SDS011;11261;52.456;10.850;2022-12-20T04:19:35;6.63;;;3.88;;
22191;SDS011;11261;52.456;10.850;2022-12-20T04:22:03;5.95;;;3.40;;
22191;SDS011;11261;52.456;10.850;2022-12-20T04:24:31;6.13;;;3.55;;
22191;SDS011;11261;52.456;10.850;2022-12-20T04:27:01;7.28;;;3.60;;
22191;SDS011;11261;52.456;10.850;2022-12-20T04:29:30;4.20;;;3.03;;
22191;SDS011;11261;52.456;10.850;2022-12-20T04:31:58;5.35;;;3.08;;
22191;SDS011;11261;52.456;10.850;2022-12-20T04:34:27;7.05;;;3.60;;
22191;SDS011;11261;52.456;10.850;2022-12-20T04:36:55;4.97;;;2.90;;
22191;SDS011;11261;52.456;10.850;2022-12-20T04:39:24;5.05;;;3.10;;
22191;SDS011;11261;52.456;10.850;2022-12-20T04:41:52;4.10;;;2.50;;
22191;SDS011;11261;52.456;10.850;2022-12-20T04:44:21;5.78;;;3.30;;
22191;SDS011;11261;52.456;10.850;2022-12-20T04:46:51;4.65;;;2.88;;
22191;SDS011;11261;52.456;10.850;2022-12-20T04:49:19;6.00;;;3.03;;
22191;SDS011;11261;52.456;10.850;2022-12-20T04:51:47;4.22;;;2.45;;
22191;SDS011;11261;52.456;10.850;2022-12-20T04:54:16;5.93;;;3.40;;
22191;SDS011;11261;52.456;10.850;2022-12-20T04:56:43;5.03;;;2.83;;
22191;SDS011;11261;52.456;10.850;2022-12-20T04:59:11;6.82;;;3.05;;
22191;SDS011;11261;52.456;10.850;2022-12-20T05:01:41;4.88;;;2.35;;
22191;SDS011;11261;52.456;10.850;2022-12-20T05:04:09;4.55;;;2.63;;
22191;SDS011;11261;52.456;10.850;2022-12-20T05:06:38;4.60;;;3.22;;
22191;SDS011;11261;52.456;10.850;2022-12-20T05:09:06;4.03;;;2.92;;
22191;SDS011;11261;52.456;10.850;2022-12-20T05:11:34;3.90;;;2.65;;
22191;SDS011;11261;52.456;10.850;2022-12-20T05:14:02;4.07;;;2.60;;
22191;SDS011;11261;52.456;10.850;2022-12-20T05:16:31;5.78;;;3.83;;
22191;SDS011;11261;52.456;10.850;2022-12-20T05:19:00;4.93;;;2.58;;
22191;SDS011;11261;52.456;10.850;2022-12-20T05:21:30;5.28;;;2.90;;
22191;SDS011;11261;52.456;10.850;2022-12-20T05:24:16;5.13;;;3.15;;
22191;SDS011;11261;52.456;10.850;2022-12-20T05:27:01;3.92;;;3.03;;
22191;SDS011;11261;52.456;10.850;2022-12-20T05:29:30;5.55;;;2.42;;
22191;SDS011;11261;52.456;10.850;2022-12-20T05:31:58;4.55;;;2.90;;
22191;SDS011;11261;52.456;10.850;2022-12-20T05:34:28;1.65;;;1.45;;
22191;SDS011;11261;52.456;10.850;2022-12-20T05:36:56;5.00;;;2.38;;
22191;SDS011;11261;52.456;10.850;2022-12-20T05:39:24;2.88;;;1.73;;
22191;SDS011;11261;52.456;10.850;2022-12-20T05:41:54;5.88;;;3.03;;
22191;SDS011;11261;52.456;10.850;2022-12-20T05:44:22;5.97;;;3.22;;
22191;SDS011;11261;52.456;10.850;2022-12-20T05:46:51;4.22;;;2.25;;
22191;SDS011;11261;52.456;10.850;2022-12-20T05:49:19;5.80;;;2.28;;
22191;SDS011;11261;52.456;10.850;2022-12-20T05:51:49;4.32;;;2.85;;
22191;SDS011;11261;52.456;10.850;2022-12-20T05:54:17;5.40;;;3.03;;
22191;SDS011;11261;52.456;10.850;2022-12-20T05:56:46;6.78;;;3.40;;
22191;SDS011;11261;52.456;10.850;2022-12-20T05:59:16;8.43;;;3.28;;
22191;SDS011;11261;52.456;10.850;2022-12-20T06:01:45;5.63;;;2.72;;
22191;SDS011;11261;52.456;10.850;2022-12-20T06:04:13;4.68;;;2.97;;
22191;SDS011;11261;52.456;10.850;2022-12-20T06:06:41;7.50;;;3.53;;
22191;SDS011;11261;52.456;10.850;2022-12-20T06:09:11;6.03;;;2.65;;
22191;SDS011;11261;52.456;10.850;2022-12-20T06:11:39;6.03;;;3.17;;
22191;SDS011;11261;52.456;10.850;2022-12-20T06:14:07;4.20;;;2.55;;
22191;SDS011;11261;52.456;10.850;2022-12-20T06:16:36;8.25;;;3.50;;
22191;SDS011;11261;52.456;10.850;2022-12-20T06:19:04;6.60;;;4.00;;
22191;SDS011;11261;52.456;10.850;2022-12-20T06:21:32;7.35;;;2.95;;
22191;SDS011;11261;52.456;10.850;2022-12-20T06:24:00;5.75;;;3.85;;
22191;SDS011;11261;52.456;10.850;2022-12-20T06:26:30;5.90;;;3.38;;
22191;SDS011;11261;52.456;10.850;2022-12-20T06:29:01;6.25;;;3.17;;
22191;SDS011;11261;52.456;10.850;2022-12-20T06:31:32;8.05;;;4.07;;
22191;SDS011;11261;52.456;10.850;2022-12-20T06:34:00;5.07;;;2.72;;
22191;SDS011;11261;52.456;10.850;2022-12-20T06:36:28;4.88;;;3.08;;
22191;SDS011;11261;52.456;10.850;2022-12-20T06:38:57;4.97;;;2.97;;
22191;SDS011;11261;52.456;10.850;2022-12-20T06:41:34;5.50;;;3.22;;
22191;SDS011;11261;52.456;10.850;2022-12-20T06:44:02;5.25;;;3.58;;
22191;SDS011;11261;52.456;10.850;2022-12-20T06:46:30;4.40;;;2.60;;
22191;SDS011;11261;52.456;10.850;2022-12-20T06:48:59;6.25;;;3.60;;
22191;SDS011;11261;52.456;10.850;2022-12-20T06:51:27;6.15;;;3.45;;
22191;SDS011;11261;52.456;10.850;2022-12-20T06:53:56;7.40;;;3.05;;
22191;SDS011;11261;52.456;10.850;2022-12-20T06:56:24;7.72;;;3.03;;
22191;SDS011;11261;52.456;10.850;2022-12-20T06:58:54;4.72;;;3.05;;
22191;SDS011;11261;52.456;10.850;2022-12-20T07:01:22;7.70;;;3.40;;
22191;SDS011;11261;52.456;10.850;2022-12-20T07:03:50;5.88;;;3.25;;
22191;SDS011;11261;52.456;10.850;2022-12-20T07:06:19;6.68;;;3.22;;
22191;SDS011;11261;52.456;10.850;2022-12-20T07:08:47;5.15;;;3.60;;
22191;SDS011;11261;52.456;10.850;2022-12-20T07:11:15;5.60;;;3.30;;
22191;SDS011;11261;52.456;10.850;2022-12-20T07:13:44;5.38;;;3.42;;
22191;SDS011;11261;52.456;10.850;2022-12-20T07:16:14;5.30;;;2.35;;
22191;SDS011;11261;52.456;10.850;2022-12-20T07:18:42;5.45;;;2.20;;
22191;SDS011;11261;52.456;10.850;2022-12-20T07:21:10;6.45;;;3.70;;
22191;SDS011;11261;52.456;10.850;2022-12-20T07:23:42;6.05;;;3.30;;
22191;SDS011;11261;52.456;10.850;2022-12-20T07:26:10;1.55;;;1.00;;
22191;SDS011;11261;52.456;10.850;2022-12-20T07:28:39;6.22;;;3.45;;
22191;SDS011;11261;52.456;10.850;2022-12-20T07:31:08;7.85;;;3.78;;
22191;SDS011;11261;52.456;10.850;2022-12-20T07:33:37;5.03;;;3.17;;
22191;SDS011;11261;52.456;10.850;2022-12-20T07:36:07;7.30;;;2.72;;
22191;SDS011;11261;52.456;10.850;2022-12-20T07:38:37;6.40;;;3.10;;
22191;SDS011;11261;52.456;10.850;2022-12-20T07:41:06;8.30;;;3.67;;
22191;SDS011;11261;52.456;10.850;2022-12-20T07:43:35;4.90;;;2.97;;
22191;SDS011;11261;52.456;10.850;2022-12-20T07:46:05;7.95;;;3.45;;
22191;SDS011;11261;52.456;10.850;2022-12-20T07:48:34;3.38;;;2.55;;
22191;SDS011;11261;52.456;10.850;2022-12-20T07:51:05;8.15;;;2.90;;
22191;SDS011;11261;52.456;10.850;2022-12-20T07:53:36;5.88;;;3.45;;
22191;SDS011;11261;52.456;10.850;2022-12-20T07:56:09;5.65;;;3.50;;
22191;SDS011;11261;52.456;10.850;2022-12-20T07:58:39;5.45;;;3.38;;
22191;SDS011;11261;52.456;10.850;2022-12-20T08:01:09;5.90;;;3.05;;
22191;SDS011;11261;52.456;10.850;2022-12-20T08:03:40;5.05;;;3.53;;
22191;SDS011;11261;52.456;10.850;2022-12-20T08:06:13;3.67;;;2.58;;
22191;SDS011;11261;52.456;10.850;2022-12-20T08:08:44;4.85;;;2.53;;
22191;SDS011;11261;52.456;10.850;2022-12-20T08:11:15;7.07;;;3.35;;
22191;SDS011;11261;52.456;10.850;2022-12-20T08:13:49;1.52;;;1.23;;
22191;SDS011;11261;52.456;10.850;2022-12-20T08:16:23;5.65;;;2.88;;
22191;SDS011;11261;52.456;10.850;2022-12-20T08:18:51;3.20;;;1.77;;
22191;SDS011;11261;52.456;10.850;2022-12-20T08:21:21;4.18;;;2.72;;
22191;SDS011;11261;52.456;10.850;2022-12-20T08:23:49;4.32;;;2.35;;
22191;SDS011;11261;52.456;10.850;2022-12-20T08:26:17;4.57;;;2.90;;
22191;SDS011;11261;52.456;10.850;2022-12-20T08:28:45;7.07;;;2.95;;
22191;SDS011;11261;52.456;10.850;2022-12-20T08:31:14;8.75;;;3.42;;
22191;SDS011;11261;52.456;10.850;2022-12-20T08:33:42;6.85;;;3.05;;
22191;SDS011;11261;52.456;10.850;2022-12-20T08:36:11;6.63;;;3.42;;
22191;SDS011;11261;52.456;10.850;2022-12-20T08:38:41;5.97;;;3.85;;
22191;SDS011;11261;52.456;10.850;2022-12-20T08:41:10;11.65;;;3.50;;
22191;SDS011;11261;52.456;10.850;2022-12-20T08:43:40;7.68;;;3.80;;
22191;SDS011;11261;52.456;10.850;2022-12-20T08:46:09;6.60;;;3.22;;
22191;SDS011;11261;52.456;10.850;2022-12-20T08:48:38;6.40;;;2.83;;
22191;SDS011;11261;52.456;10.850;2022-12-20T08:51:08;7.15;;;3.13;;
22191;SDS011;11261;52.456;10.850;2022-12-20T08:53:37;6.57;;;3.17;;
22191;SDS011;11261;52.456;10.850;2022-12-20T08:56:08;6.50;;;3.10;;
22191;SDS011;11261;52.456;10.850;2022-12-20T08:58:38;5.90;;;3.05;;
22191;SDS011;11261;52.456;10.850;2022-12-20T09:01:08;5.13;;;3.17;;
22191;SDS011;11261;52.456;10.850;2022-12-20T09:03:38;7.55;;;3.15;;
22191;SDS011;11261;52.456;10.850;2022-12-20T09:06:07;5.10;;;3.15;;
22191;SDS011;11261;52.456;10.850;2022-12-20T09:08:37;5.28;;;3.35;;
22191;SDS011;11261;52.456;10.850;2022-12-20T09:11:08;5.75;;;3.08;;
22191;SDS011;11261;52.456;10.850;2022-12-20T09:13:38;5.60;;;3.00;;
22191;SDS011;11261;52.456;10.850;2022-12-20T09:16:10;6.70;;;3.10;;
22191;SDS011;11261;52.456;10.850;2022-12-20T09:18:39;8.85;;;4.00;;
22191;SDS011;11261;52.456;10.850;2022-12-20T09:21:08;6.10;;;3.58;;
22191;SDS011;11261;52.456;10.850;2022-12-20T09:23:38;7.20;;;3.45;;
22191;SDS011;11261;52.456;10.850;2022-12-20T09:26:09;5.07;;;3.30;;
22191;SDS011;11261;52.456;10.850;2022-12-20T09:28:40;6.57;;;3.42;;
22191;SDS011;11261;52.456;10.850;2022-12-20T09:31:10;5.43;;;3.17;;
22191;SDS011;11261;52.456;10.850;2022-12-20T09:33:40;5.68;;;3.15;;
22191;SDS011;11261;52.456;10.850;2022-12-20T09:36:09;4.93;;;3.13;;
22191;SDS011;11261;52.456;10.850;2022-12-20T09:38:38;7.78;;;3.33;;
22191;SDS011;11261;52.456;10.850;2022-12-20T09:41:15;5.60;;;3.25;;
22191;SDS011;11261;52.456;10.850;2022-12-20T09:43:51;5.50;;;3.20;;
22191;SDS011;11261;52.456;10.850;2022-12-20T09:46:19;4.65;;;2.80;;
22191;SDS011;11261;52.456;10.850;2022-12-20T09:48:50;4.13;;;2.88;;
22191;SDS011;11261;52.456;10.850;2022-12-20T09:51:28;3.95;;;2.70;;
22191;SDS011;11261;52.456;10.850;2022-12-20T09:54:15;5.13;;;2.90;;
22191;SDS011;11261;52.456;10.850;2022-12-20T09:56:55;3.35;;;2.72;;
22191;SDS011;11261;52.456;10.850;2022-12-20T09:59:26;6.65;;;3.75;;
22191;SDS011;11261;52.456;10.850;2022-12-20T10:02:00;8.07;;;3.88;;
22191;SDS011;11261;52.456;10.850;2022-12-20T10:04:48;7.40;;;3.63;;
22191;SDS011;11261;52.456;10.850;2022-12-20T10:07:21;4.40;;;2.95;;
22191;SDS011;11261;52.456;10.850;2022-12-20T10:13:06;4.80;;;3.40;;
22191;SDS011;11261;52.456;10.850;2022-12-20T10:15:45;5.60;;;3.00;;
22191;SDS011;11261;52.456;10.850;2022-12-20T10:18:24;6.43;;;3.22;;
22191;SDS011;11261;52.456;10.850;2022-12-20T10:21:06;5.40;;;3.15;;
22191;SDS011;11261;52.456;10.850;2022-12-20T10:23:41;6.38;;;3.53;;
22191;SDS011;11261;52.456;10.850;2022-12-20T10:26:24;8.25;;;3.90;;
22191;SDS011;11261;52.456;10.850;2022-12-20T10:28:54;7.43;;;3.60;;
22191;SDS011;11261;52.456;10.850;2022-12-20T10:31:23;6.95;;;3.35;;
22191;SDS011;11261;52.456;10.850;2022-12-20T10:33:51;6.15;;;3.22;;
22191;SDS011;11261;52.456;10.850;2022-12-20T10:36:21;4.30;;;2.92;;
22191;SDS011;11261;52.456;10.850;2022-12-20T10:38:53;7.40;;;3.70;;
22191;SDS011;11261;52.456;10.850;2022-12-20T10:41:23;6.38;;;3.22;;
22191;SDS011;11261;52.456;10.850;2022-12-20T10:43:55;5.13;;;2.80;;
22191;SDS011;11261;52.456;10.850;2022-12-20T10:46:36;6.35;;;2.95;;
22191;SDS011;11261;52.456;10.850;2022-12-20T10:51:59;5.65;;;2.78;;
22191;SDS011;11261;52.456;10.850;2022-12-20T10:54:31;7.03;;;3.17;;
22191;SDS011;11261;52.456;10.850;2022-12-20T10:57:01;4.43;;;2.70;;
22191;SDS011;11261;52.456;10.850;2022-12-20T10:59:43;5.50;;;2.80;;
22191;SDS011;11261;52.456;10.850;2022-12-20T11:02:20;4.05;;;2.50;;
22191;SDS011;11261;52.456;10.850;2022-12-20T11:05:15;3.40;;;2.40;;
22191;SDS011;11261;52.456;10.850;2022-12-20T11:07:52;5.55;;;2.40;;
22191;SDS011;11261;52.456;10.850;2022-12-20T11:10:42;4.07;;;2.63;;
22191;SDS011;11261;52.456;10.850;2022-12-20T11:13:18;8.05;;;2.63;;
22191;SDS011;11261;52.456;10.850;2022-12-20T11:15:50;6.95;;;3.10;;
22191;SDS011;11261;52.456;10.850;2022-12-20T11:18:26;4.63;;;2.70;;
22191;SDS011;11261;52.456;10.850;2022-12-20T11:21:09;4.97;;;3.20;;
22191;SDS011;11261;52.456;10.850;2022-12-20T11:23:54;6.25;;;3.20;;
22191;SDS011;11261;52.456;10.850;2022-12-20T11:26:33;5.57;;;2.95;;
22191;SDS011;11261;52.456;10.850;2022-12-20T11:29:15;5.28;;;2.78;;
22191;SDS011;11261;52.456;10.850;2022-12-20T11:31:55;7.22;;;2.75;;
22191;SDS011;11261;52.456;10.850;2022-12-20T11:34:36;10.90;;;3.45;;
22191;SDS011;11261;52.456;10.850;2022-12-20T11:37:17;6.68;;;3.10;;
22191;SDS011;11261;52.456;10.850;2022-12-20T11:39:50;5.20;;;2.80;;
22191;SDS011;11261;52.456;10.850;2022-12-20T11:42:33;3.33;;;1.88;;
22191;SDS011;11261;52.456;10.850;2022-12-20T11:45:14;4.25;;;2.28;;
22191;SDS011;11261;52.456;10.850;2022-12-20T11:47:59;4.10;;;2.35;;
22191;SDS011;11261;52.456;10.850;2022-12-20T11:50:48;5.03;;;2.15;;
22191;SDS011;11261;52.456;10.850;2022-12-20T11:53:25;3.47;;;2.10;;
22191;SDS011;11261;52.456;10.850;2022-12-20T11:56:00;3.95;;;1.80;;
22191;SDS011;11261;52.456;10.850;2022-12-20T11:58:35;3.45;;;2.28;;
22191;SDS011;11261;52.456;10.850;2022-12-20T12:01:17;6.70;;;2.33;;
22191;SDS011;11261;52.456;10.850;2022-12-20T12:03:52;4.35;;;2.60;;
22191;SDS011;11261;52.456;10.850;2022-12-20T12:06:30;5.40;;;2.38;;
22191;SDS011;11261;52.456;10.850;2022-12-20T12:09:07;6.15;;;2.83;;
22191;SDS011;11261;52.456;10.850;2022-12-20T12:11:43;4.30;;;2.25;;
22191;SDS011;11261;52.456;10.850;2022-12-20T12:14:37;3.42;;;2.25;;
22191;SDS011;11261;52.456;10.850;2022-12-20T12:17:13;3.55;;;2.05;;
22191;SDS011;11261;52.456;10.850;2022-12-20T12:19:49;3.33;;;2.30;;
22191;SDS011;11261;52.456;10.850;2022-12-20T12:22:25;5.82;;;2.72;;
22191;SDS011;11261;52.456;10.850;2022-12-20T12:24:57;3.45;;;2.08;;
22191;SDS011;11261;52.456;10.850;2022-12-20T12:27:28;3.90;;;2.08;;
22191;SDS011;11261;52.456;10.850;2022-12-20T12:29:57;2.53;;;1.50;;
22191;SDS011;11261;52.456;10.850;2022-12-20T12:32:27;2.88;;;2.05;;
22191;SDS011;11261;52.456;10.850;2022-12-20T12:35:07;4.35;;;2.00;;
22191;SDS011;11261;52.456;10.850;2022-12-20T12:38:02;3.28;;;2.00;;
22191;SDS011;11261;52.456;10.850;2022-12-20T12:43:43;3.47;;;2.13;;
22191;SDS011;11261;52.456;10.850;2022-12-20T12:46:15;3.67;;;2.30;;
22191;SDS011;11261;52.456;10.850;2022-12-20T12:48:48;2.85;;;1.90;;
22191;SDS011;11261;52.456;10.850;2022-12-20T12:51:23;3.25;;;1.90;;
22191;SDS011;11261;52.456;10.850;2022-12-20T12:54:01;3.30;;;1.85;;
22191;SDS011;11261;52.456;10.850;2022-12-20T12:56:39;3.88;;;2.00;;
22191;SDS011;11261;52.456;10.850;2022-12-20T13:05:31;3.78;;;2.10;;
22191;SDS011;11261;52.456;10.850;2022-12-20T13:08:02;2.90;;;2.00;;
22191;SDS011;11261;52.456;10.850;2022-12-20T13:10:55;5.32;;;1.70;;
22191;SDS011;11261;52.456;10.850;2022-12-20T13:13:27;4.80;;;2.08;;
22191;SDS011;11261;52.456;10.850;2022-12-20T13:19:17;3.33;;;1.80;;
22191;SDS011;11261;52.456;10.850;2022-12-20T13:21:57;3.67;;;1.77;;
22191;SDS011;11261;52.456;10.850;2022-12-20T13:24:52;3.47;;;2.00;;
22191;SDS011;11261;52.456;10.850;2022-12-20T13:27:27;3.03;;;1.70;;
22191;SDS011;11261;52.456;10.850;2022-12-20T13:29:58;3.15;;;1.98;;
22191;SDS011;11261;52.456;10.850;2022-12-20T13:32:52;4.70;;;1.90;;
22191;SDS011;11261;52.456;10.850;2022-12-20T13:50:17;3.50;;;1.85;;
22191;SDS011;11261;52.456;10.850;2022-12-20T13:52:57;3.08;;;1.83;;
22191;SDS011;11261;52.456;10.850;2022-12-20T13:55:30;3.65;;;1.60;;
22191;SDS011;11261;52.456;10.850;2022-12-20T13:58:10;2.67;;;1.70;;
22191;SDS011;11261;52.456;10.850;2022-12-20T14:00:41;2.28;;;1.73;;
22191;SDS011;11261;52.456;10.850;2022-12-20T14:03:13;3.13;;;1.85;;
22191;SDS011;11261;52.456;10.850;2022-12-20T14:05:50;2.33;;;1.63;;
22191;SDS011;11261;52.456;10.850;2022-12-20T14:08:25;3.25;;;1.80;;
22191;SDS011;11261;52.456;10.850;2022-12-20T14:11:01;3.40;;;1.90;;
22191;SDS011;11261;52.456;10.850;2022-12-20T14:13:36;1.58;;;1.20;;
22191;SDS011;11261;52.456;10.850;2022-12-20T14:16:09;2.90;;;1.70;;
22191;SDS011;11261;52.456;10.850;2022-12-20T14:18:41;5.03;;;1.70;;
22191;SDS011;11261;52.456;10.850;2022-12-20T14:21:14;3.40;;;2.22;;
22191;SDS011;11261;52.456;10.850;2022-12-20T14:23:44;2.55;;;1.83;;
22191;SDS011;11261;52.456;10.850;2022-12-20T14:26:16;2.20;;;1.58;;
22191;SDS011;11261;52.456;10.850;2022-12-20T14:28:48;3.58;;;1.95;;
22191;SDS011;11261;52.456;10.850;2022-12-20T14:31:21;5.35;;;1.75;;
22191;SDS011;11261;52.456;10.850;2022-12-20T14:33:59;3.15;;;1.80;;
22191;SDS011;11261;52.456;10.850;2022-12-20T14:36:29;3.42;;;1.88;;
22191;SDS011;11261;52.456;10.850;2022-12-20T14:38:59;4.43;;;1.80;;
22191;SDS011;11261;52.456;10.850;2022-12-20T14:41:31;2.63;;;1.60;;
22191;SDS011;11261;52.456;10.850;2022-12-20T14:44:11;3.42;;;1.77;;
22191;SDS011;11261;52.456;10.850;2022-12-20T14:46:46;3.92;;;2.00;;
22191;SDS011;11261;52.456;10.850;2022-12-20T14:49:17;3.00;;;1.90;;
22191;SDS011;11261;52.456;10.850;2022-12-20T14:51:49;4.13;;;2.00;;
22191;SDS011;11261;52.456;10.850;2022-12-20T14:54:19;4.65;;;1.88;;
22191;SDS011;11261;52.456;10.850;2022-12-20T14:57:10;3.17;;;1.73;;
22191;SDS011;11261;52.456;10.850;2022-12-20T14:59:56;4.28;;;1.63;;
22191;SDS011;11261;52.456;10.850;2022-12-20T15:02:33;2.97;;;1.60;;
22191;SDS011;11261;52.456;10.850;2022-12-20T15:05:07;2.75;;;1.60;;
22191;SDS011;11261;52.456;10.850;2022-12-20T15:08:08;4.63;;;2.10;;
22191;SDS011;11261;52.456;10.850;2022-12-20T15:10:36;3.33;;;1.88;;
22191;SDS011;11261;52.456;10.850;2022-12-20T15:13:11;2.50;;;1.50;;
22191;SDS011;11261;52.456;10.850;2022-12-20T15:15:42;4.25;;;2.10;;
22191;SDS011;11261;52.456;10.850;2022-12-20T15:18:11;6.72;;;3.08;;
22191;SDS011;11261;52.456;10.850;2022-12-20T15:20:40;5.32;;;2.58;;
22191;SDS011;11261;52.456;10.850;2022-12-20T15:23:11;4.45;;;2.42;;
22191;SDS011;11261;52.456;10.850;2022-12-20T15:25:41;4.38;;;2.30;;
22191;SDS011;11261;52.456;10.850;2022-12-20T15:28:12;3.78;;;2.40;;
22191;SDS011;11261;52.456;10.850;2022-12-20T15:30:43;5.97;;;3.03;;
22191;SDS011;11261;52.456;10.850;2022-12-20T15:33:16;8.48;;;3.33;;
22191;SDS011;11261;52.456;10.850;2022-12-20T15:35:47;7.07;;;3.75;;
22191;SDS011;11261;52.456;10.850;2022-12-20T15:38:16;13.23;;;8.98;;
22191;SDS011;11261;52.456;10.850;2022-12-20T15:41:07;9.75;;;7.28;;